Abiquiu, NM

5:22 PM MDT on September 20, 2014 (GMT -0600)
Plaza Blanca | Change Station
CLOSE
Current Station
Personal Weather Station
Location: Abiquiu, NM
Elevation: 6154 ft
Nearby Weather Stations

Elev 6154 ft 36.22 °N, 106.28 °W | Updated 4 seconds ago

Partly Cloudy
Partly Cloudy
82.4 °F
Feels Like 80 °F
N
8.1
Wind Variable Wind from SE
Gusts 8.1 mph

Today
High -- | Low -- °F
--% Chance of Precip.
Yesterday
High -- | Low -- °F
Precip. -- in
6:51 AM 7:04 PM
Waning Crescent, 10% visible
Pressure 30.24 in
Visibility 10.0 miles
Clouds Mostly Cloudy 11000 ft
Heat Index 80 °F
Dew Point 40 °F
Humidity 22%
Rainfall 0.00 in
Snow Depth 1 in , 1 in , 2 in
UV 1 out of 12
Pollen 7.50 out of 12
Air Quality Not available.
Flu Activity Not available.
METAR KLAM 202315Z AUTO 07005KT 10SM BKN110 28/02 A3024 RMK AO2 T02760021

More Conditions Fewer Conditions

Pressure 30.24 in
Visibility 10.0 miles
Clouds Mostly Cloudy 11000 ft
Heat Index 80 °F
Dew Point 40 °F
Humidity 22%
Rainfall 0.00 in
Snow Depth 1 in , 1 in , 2 in
UV 1 out of 12
Pollen 7.50 out of 12
Air Quality Not available.
Flu Activity Not available.
METAR KLAM 202315Z AUTO 07005KT 10SM BKN110 28/02 A3024 RMK AO2 T02760021

More Conditions Fewer Conditions

Nowcast | as of 3:58 PM MDT on September 20, 2014

Isolated showers and thunderstorms will continue over north central New Mexico through the remainder of the afternoon. Movement will be to the northeast at just 10 mph. These storms will be capable of producing torrential rain at a rate of one to two inches an hour... wind gusts to 45 mph...one half hail and dangerous cloud to ground lightning. Locations impacted through 6 PM include Alcalde...Chili... Tierra Amarilla...Monero...Los Pinos and Black Lake.

×

10-Day Weather Forecast

Almanac

Astronomy

Sep. 20, 2014 Rise Set
Actual Time 6:51 AM MDT 7:04 PM MDT
Civil Twilight 6:25 AM MDT 7:30 PM MDT
Nautical Twilight 5:55 AM MDT 8:00 PM MDT
Astronomical Twilight 5:25 AM MDT 8:30 PM MDT
Moon 3:37 AM MDT 5:05 PM MDT
Length of Visible Light 13h 04m
Length of Day
12h 13m
Tomorrow will be 2m 16s shorter.
Waning Crescent, 10% of the Moon is Illuminated
Today
Waning Crescent
Sep 24
New
Oct 1
First Quarter
Oct 8
Full
Oct 15
Last Quarter

Today's Extremes

State Highs State Lows

Community

WunderPhotos

Upload Photos

1,754,978 photos uploaded!

WunderBlogs® & News

Nearby

Snow Depth

Station Depth Elevation
Silver Creek Divide 1 in 9000 ft
Sierra Blanca 1 in 10280 ft
Wesner Springs 2 in 11120 ft

Earthquake Activity

City Distance Mag. Time & Date
No recent earthquake activity has been reported nearby.
Minimum magnitude displayed is 2.5.

Coastal Water Temperatures

Place Temperature
No Stations Reporting

Nearby Weather Stations